Time;durP1;ratioP1;P1;durP2;ratioP2;P2;SDS_P1;SDS_P2;PMS_P1;PMS_P2;Temp;Humidity;BMP_temperature;BMP_pressure;BME280_temperature;BME280_humidity;BME280_pressure;Samples;Min_cycle;Max_cycle;Signal;HPM_P1;HPM_P2
2021/07/25 00:00:07;;;;;;;19.25;11.85;;;17.00;94.00;;;;;;6215624;23;20001;-79
2021/07/25 00:02:34;;;;;;;18.33;11.23;;;17.00;93.80;;;;;;6218343;23;20366;-79
2021/07/25 00:04:59;;;;;;;18.50;12.20;;;17.00;94.10;;;;;;6192002;23;20031;-79
2021/07/25 00:07:25;;;;;;;21.17;12.30;;;17.00;94.40;;;;;;6192579;23;20012;-80
2021/07/25 00:09:51;;;;;;;20.33;11.80;;;16.90;94.60;;;;;;6218579;23;20005;-79
2021/07/25 00:12:17;;;;;;;18.48;12.23;;;16.90;94.70;;;;;;6217817;23;20004;-79
2021/07/25 00:14:42;;;;;;;20.17;12.73;;;16.90;94.70;;;;;;6189340;23;20362;-79
2021/07/25 00:17:08;;;;;;;17.27;11.65;;;16.90;94.40;;;;;;6192692;23;20004;-80
2021/07/25 00:19:37;;;;;;;16.38;11.48;;;16.90;94.40;;;;;;6219333;23;20003;-80
2021/07/25 00:22:04;;;;;;;19.17;12.35;;;16.90;94.10;;;;;;6218470;23;20067;-81
2021/07/25 00:24:35;;;;;;;20.92;12.73;;;16.80;94.00;;;;;;6191939;23;20436;-78
2021/07/25 00:27:03;;;;;;;18.60;12.15;;;16.80;94.00;;;;;;6217775;23;20008;-79
2021/07/25 00:29:38;;;;;;;16.63;11.02;;;16.80;93.80;;;;;;6216487;23;20370;-79
2021/07/25 00:32:05;;;;;;;17.13;10.80;;;16.80;93.60;;;;;;6192799;23;20433;-79
2021/07/25 00:34:35;;;;;;;16.52;11.02;;;16.80;93.50;;;;;;6218299;23;20369;-79
2021/07/25 00:37:01;;;;;;;16.90;10.40;;;16.70;93.70;;;;;;6218489;23;20561;-79
2021/07/25 00:39:27;;;;;;;18.27;10.18;;;16.70;93.40;;;;;;6218841;23;20055;-79
2021/07/25 00:41:53;;;;;;;17.98;10.35;;;16.70;93.20;;;;;;6192218;23;20012;-79
2021/07/25 00:44:19;;;;;;;18.48;11.00;;;16.70;93.20;;;;;;6217545;23;20038;-78
2021/07/25 00:46:46;;;;;;;18.98;11.07;;;16.70;93.80;;;;;;6217227;23;20277;-79
2021/07/25 00:49:14;;;;;;;15.55;10.68;;;16.70;93.80;;;;;;6217667;23;20370;-78
2021/07/25 00:51:39;;;;;;;16.10;10.98;;;16.70;93.70;;;;;;6217685;23;20691;-79
2021/07/25 00:54:06;;;;;;;15.82;10.57;;;16.60;93.60;;;;;;6190611;23;20018;-79
2021/07/25 00:56:31;;;;;;;16.00;10.48;;;16.60;93.50;;;;;;6217536;23;20375;-79
2021/07/25 00:58:57;;;;;;;23.48;11.15;;;16.60;93.30;;;;;;6217601;23;20135;-79
2021/07/25 01:01:23;;;;;;;22.77;10.55;;;16.60;93.80;;;;;;6190244;23;19996;-78
2021/07/25 01:04:13;;;;;;;15.80;9.75;;;16.50;93.50;;;;;;6218261;23;20055;-78
2021/07/25 01:06:42;;;;;;;17.05;10.60;;;16.50;93.70;;;;;;6218481;23;20389;-78
2021/07/25 01:09:17;;;;;;;18.08;10.07;;;16.40;93.90;;;;;;6218455;23;20000;-78
2021/07/25 01:11:49;;;;;;;13.45;8.98;;;16.40;93.80;;;;;;6217883;23;20366;-78
2021/07/25 01:14:23;;;;;;;19.50;10.43;;;16.40;93.80;;;;;;6191105;23;20394;-78
2021/07/25 01:16:49;;;;;;;14.50;9.65;;;16.40;94.10;;;;;;6217714;23;20000;-77
2021/07/25 01:19:14;;;;;;;17.80;10.52;;;16.40;94.20;;;;;;6218527;23;20004;-78
2021/07/25 01:21:40;;;;;;;14.18;9.15;;;16.40;94.10;;;;;;6217922;23;20002;-77
2021/07/25 01:24:06;;;;;;;21.00;9.93;;;16.30;94.00;;;;;;6191365;23;20008;-78
2021/07/25 01:26:40;;;;;;;15.98;10.25;;;16.30;94.20;;;;;;6218253;23;20068;-77
2021/07/25 01:29:06;;;;;;;;;;;16.30;94.10;;;;;;6218915;23;20012;-78
2021/07/25 01:31:38;;;;;;;15.13;9.55;;;16.30;94.20;;;;;;6190410;23;20208;-77
2021/07/25 01:34:05;;;;;;;15.35;9.10;;;16.30;94.10;;;;;;6217958;23;20067;-79
2021/07/25 01:36:32;;;;;;;15.48;9.63;;;16.30;94.40;;;;;;6218425;23;20024;-77
2021/07/25 01:38:58;;;;;;;14.68;9.18;;;16.20;94.10;;;;;;6191648;23;20004;-78
2021/07/25 01:41:24;;;;;;;12.80;8.65;;;16.20;94.50;;;;;;6192201;23;20319;-78
2021/07/25 01:43:51;;;;;;;16.90;10.63;;;16.20;94.60;;;;;;6217559;23;19997;-78
2021/07/25 01:46:18;;;;;;;13.88;9.50;;;16.20;94.50;;;;;;6217003;23;20385;-78
2021/07/25 01:48:44;;;;;;;12.80;8.45;;;16.20;94.70;;;;;;6217625;23;20266;-78
2021/07/25 01:51:12;;;;;;;15.02;8.60;;;16.20;94.80;;;;;;6218540;23;20059;-78
2021/07/25 01:53:38;;;;;;;12.55;8.48;;;16.20;94.90;;;;;;6218067;23;20059;-77
2021/07/25 01:56:03;;;;;;;15.68;9.07;;;16.30;95.30;;;;;;6217730;23;20012;-77
2021/07/25 01:58:32;;;;;;;15.70;8.52;;;16.30;95.20;;;;;;6217503;23;20008;-77
2021/07/25 02:00:58;;;;;;;20.20;8.35;;;16.30;95.60;;;;;;6216384;23;19996;-78
2021/07/25 02:03:28;;;;;;;14.68;8.43;;;16.30;96.70;;;;;;6218085;23;20004;-77
2021/07/25 02:05:54;;;;;;;13.98;8.60;;;16.30;96.50;;;;;;6217622;23;20000;-77
2021/07/25 02:08:20;;;;;;;14.30;8.10;;;16.30;96.60;;;;;;6191291;23;20004;-77
2021/07/25 02:10:47;;;;;;;15.40;8.20;;;16.30;96.50;;;;;;6217794;23;20015;-78
2021/07/25 02:13:14;;;;;;;15.77;8.82;;;16.30;96.50;;;;;;6217518;23;20027;-78
2021/07/25 02:15:40;;;;;;;13.70;8.55;;;16.30;96.60;;;;;;6216326;23;20005;-78
2021/07/25 02:18:06;;;;;;;14.90;7.40;;;16.30;97.00;;;;;;6218050;23;20001;-78
2021/07/25 02:20:33;;;;;;;14.27;7.47;;;16.30;97.30;;;;;;6191758;23;20088;-78
2021/07/25 02:22:58;;;;;;;13.13;7.75;;;16.40;97.40;;;;;;6191253;23;20000;-77
2021/07/25 02:25:24;;;;;;;12.27;7.28;;;16.40;97.70;;;;;;6217739;23;20011;-77
2021/07/25 02:27:50;;;;;;;10.68;6.35;;;16.40;97.70;;;;;;6217383;23;20079;-78
2021/07/25 02:30:15;;;;;;;10.35;6.18;;;16.40;97.80;;;;;;6190140;23;20001;-78
2021/07/25 02:32:41;;;;;;;15.27;6.50;;;16.40;98.00;;;;;;6217643;23;20054;-78
2021/07/25 02:35:07;;;;;;;11.32;6.82;;;16.50;98.00;;;;;;6218242;23;20135;-78
2021/07/25 02:37:32;;;;;;;10.13;6.80;;;16.50;98.00;;;;;;6191661;23;20008;-79
2021/07/25 02:39:58;;;;;;;10.95;6.90;;;16.50;98.00;;;;;;6217527;23;20358;-78
2021/07/25 02:42:23;;;;;;;12.30;7.60;;;16.40;98.00;;;;;;6217520;23;20362;-78
2021/07/25 02:44:49;;;;;;;12.23;6.57;;;16.40;97.60;;;;;;6215666;23;20008;-77
2021/07/25 02:47:15;;;;;;;10.52;6.20;;;16.40;97.80;;;;;;6217844;23;20027;-78
2021/07/25 02:49:41;;;;;;;9.35;6.55;;;16.40;98.00;;;;;;6190754;23;20066;-77
2021/07/25 02:52:06;;;;;;;10.10;6.18;;;16.40;98.00;;;;;;6191631;23;20005;-78
2021/07/25 02:54:32;;;;;;;9.35;6.07;;;16.50;98.00;;;;;;6217928;23;20055;-79
2021/07/25 02:56:57;;;;;;;15.57;6.15;;;16.50;98.00;;;;;;6216506;23;20374;-79
2021/07/25 02:59:23;;;;;;;11.77;6.72;;;16.50;98.00;;;;;;6215886;23;19996;-78
2021/07/25 03:01:50;;;;;;;10.57;5.88;;;16.60;98.00;;;;;;6190780;23;20036;-79
2021/07/25 03:04:16;;;;;;;9.10;6.03;;;16.60;98.00;;;;;;6191484;23;20104;-79
2021/07/25 03:06:42;;;;;;;12.10;6.32;;;16.60;98.00;;;;;;6217393;23;20005;-78
2021/07/25 03:09:08;;;;;;;12.13;5.95;;;16.60;98.00;;;;;;6191255;23;20004;-78
2021/07/25 03:11:34;;;;;;;10.43;6.88;;;16.50;98.00;;;;;;6217519;23;20004;-78
2021/07/25 03:14:00;;;;;;;12.27;7.38;;;16.50;98.00;;;;;;6217019;23;20004;-77
2021/07/25 03:16:25;;;;;;;11.48;6.00;;;16.40;97.60;;;;;;6190411;23;20332;-78
2021/07/25 03:18:51;;;;;;;9.65;6.82;;;16.40;98.00;;;;;;6193017;23;20008;-78
2021/07/25 03:21:17;;;;;;;12.13;6.85;;;16.30;98.00;;;;;;6193581;23;20005;-78
2021/07/25 03:23:43;;;;;;;11.77;7.05;;;16.30;97.90;;;;;;6219070;23;19997;-78
2021/07/25 03:26:08;;;;;;;11.15;6.93;;;16.40;98.00;;;;;;6219551;23;20005;-79
2021/07/25 03:28:34;;;;;;;11.20;6.35;;;16.40;98.00;;;;;;6219461;23;20090;-79
2021/07/25 03:30:59;;;;;;;9.57;6.70;;;16.40;98.00;;;;;;6217580;23;20004;-79
2021/07/25 03:33:25;;;;;;;25.95;7.70;;;16.40;98.00;;;;;;6219629;23;20013;-79
2021/07/25 03:35:51;;;;;;;14.25;6.97;;;16.40;98.00;;;;;;6219218;23;20036;-79
2021/07/25 03:38:17;;;;;;;11.18;6.88;;;16.40;98.00;;;;;;6193286;23;20323;-79
2021/07/25 03:40:46;;;;;;;9.70;6.20;;;16.30;98.00;;;;;;6192779;23;20274;-78
2021/07/25 03:43:13;;;;;;;10.48;7.28;;;16.30;98.00;;;;;;6192498;23;20009;-79
2021/07/25 03:45:47;;;;;;;13.85;7.35;;;16.30;97.80;;;;;;6217537;23;20050;-77
2021/07/25 03:48:16;;;;;;;11.27;6.80;;;16.20;97.70;;;;;;6219544;23;20374;-78
2021/07/25 03:50:43;;;;;;;10.52;7.40;;;16.20;97.40;;;;;;6192728;23;20011;-77
2021/07/25 03:53:09;;;;;;;15.60;7.47;;;16.20;97.50;;;;;;6192887;23;20028;-79
2021/07/25 03:55:35;;;;;;;15.57;8.15;;;16.20;97.50;;;;;;6219221;23;20333;-79
2021/07/25 03:58:02;;;;;;;12.75;7.55;;;16.20;97.50;;;;;;6218629;23;20003;-79
2021/07/25 04:00:28;;;;;;;11.75;7.70;;;16.20;97.30;;;;;;6217875;23;20080;-78
2021/07/25 04:02:54;;;;;;;12.40;7.80;;;16.20;97.10;;;;;;6218772;23;20327;-78
2021/07/25 04:05:19;;;;;;;12.82;7.78;;;16.10;97.00;;;;;;6219365;23;20024;-79
2021/07/25 04:07:45;;;;;;;12.82;8.35;;;16.10;96.90;;;;;;6218655;23;20001;-78
2021/07/25 04:10:11;;;;;;;11.55;7.78;;;16.10;97.00;;;;;;6219163;23;20001;-79
2021/07/25 04:12:37;;;;;;;11.60;7.72;;;16.10;96.60;;;;;;6192525;23;20080;-78
2021/07/25 04:15:04;;;;;;;11.82;7.88;;;16.10;96.40;;;;;;6190703;23;20035;-78
2021/07/25 04:17:30;;;;;;;13.02;8.52;;;16.00;96.90;;;;;;6192869;23;20397;-78
2021/07/25 04:19:56;;;;;;;12.90;7.25;;;16.00;96.50;;;;;;6218765;23;19996;-78
2021/07/25 04:22:21;;;;;;;13.57;8.43;;;15.90;96.20;;;;;;6218995;23;20021;-78
2021/07/25 04:24:47;;;;;;;12.75;8.43;;;15.90;96.00;;;;;;6218817;23;20013;-78
2021/07/25 04:27:15;;;;;;;14.10;8.35;;;15.90;95.50;;;;;;6218417;23;20004;-78
2021/07/25 04:29:41;;;;;;;18.98;8.25;;;16.00;95.60;;;;;;6216742;23;20043;-78
2021/07/25 04:32:07;;;;;;;13.05;8.15;;;16.00;95.40;;;;;;6219056;23;20374;-78
2021/07/25 04:34:33;;;;;;;13.43;9.07;;;16.00;95.50;;;;;;6218563;23;20011;-79
2021/07/25 04:37:00;;;;;;;14.32;7.55;;;16.00;95.40;;;;;;6219039;23;20024;-78
2021/07/25 04:39:26;;;;;;;12.05;7.55;;;16.00;95.50;;;;;;6218962;23;20001;-78
2021/07/25 04:42:01;;;;;;;12.18;7.85;;;16.10;96.40;;;;;;6218446;23;20031;-78
2021/07/25 04:44:41;;;;;;;12.52;8.10;;;16.00;96.20;;;;;;6217202;23;20411;-79
2021/07/25 04:47:11;;;;;;;12.02;8.38;;;16.10;95.70;;;;;;6192363;23;20031;-78
2021/07/25 04:50:02;;;;;;;11.35;7.82;;;16.20;95.70;;;;;;6191957;23;20004;-78
2021/07/25 04:52:36;;;;;;;10.50;7.60;;;16.30;95.90;;;;;;6181442;23;20305;-78
2021/07/25 04:55:02;;;;;;;15.38;8.05;;;16.50;95.80;;;;;;6218451;23;20244;-78
2021/07/25 04:57:33;;;;;;;14.50;7.35;;;16.60;95.90;;;;;;6191738;23;20039;-78
2021/07/25 05:00:00;;;;;;;10.13;6.95;;;16.70;96.50;;;;;;6216410;23;20317;-78
2021/07/25 05:02:26;;;;;;;10.98;6.88;;;16.80;96.60;;;;;;6192260;23;20260;-78
2021/07/25 05:04:52;;;;;;;11.88;7.10;;;17.00;96.50;;;;;;6218536;23;20008;-78
2021/07/25 05:07:18;;;;;;;10.85;7.03;;;17.10;97.00;;;;;;6192199;23;20008;-78
2021/07/25 05:09:44;;;;;;;11.82;6.85;;;17.10;97.30;;;;;;6191926;23;20278;-78
2021/07/25 05:12:18;;;;;;;10.60;7.07;;;17.20;97.30;;;;;;6192359;23;20008;-78
2021/07/25 05:14:59;;;;;;;10.68;6.53;;;17.40;98.00;;;;;;6216549;23;20372;-78
2021/07/25 05:17:27;;;;;;;9.82;6.40;;;17.30;98.00;;;;;;6192087;23;20051;-78
2021/07/25 05:20:03;;;;;;;12.05;6.88;;;17.40;98.00;;;;;;6217974;23;20362;-78
2021/07/25 05:22:48;;;;;;;12.80;6.80;;;17.40;98.00;;;;;;6192048;23;20035;-78
2021/07/25 05:25:17;;;;;;;14.55;6.70;;;17.40;98.00;;;;;;6218583;23;20008;-78
2021/07/25 05:27:48;;;;;;;10.65;6.80;;;17.40;98.00;;;;;;6218377;23;20011;-78
2021/07/25 05:30:17;;;;;;;9.90;7.10;;;17.50;98.00;;;;;;6216761;23;20265;-78
2021/07/25 05:32:42;;;;;;;14.63;7.05;;;17.50;98.00;;;;;;6191727;23;20317;-78
2021/07/25 05:35:09;;;;;;;11.10;6.55;;;17.60;98.00;;;;;;6192192;23;20020;-78
2021/07/25 05:37:34;;;;;;;11.75;6.72;;;17.70;98.00;;;;;;6192055;23;20071;-78
2021/07/25 05:40:00;;;;;;;10.35;6.18;;;17.90;98.00;;;;;;6218175;23;20375;-78
2021/07/25 05:42:26;;;;;;;9.43;5.93;;;18.10;98.00;;;;;;6192038;23;20031;-78
2021/07/25 05:44:51;;;;;;;8.43;5.40;;;18.30;98.00;;;;;;6190335;23;20016;-78
2021/07/25 05:47:17;;;;;;;9.07;5.50;;;18.50;98.00;;;;;;6191366;23;20026;-78
2021/07/25 05:49:43;;;;;;;8.38;5.72;;;18.70;98.00;;;;;;6218111;23;20025;-78
2021/07/25 05:52:08;;;;;;;9.93;5.53;;;19.10;98.00;;;;;;6218034;23;20004;-78
2021/07/25 05:54:34;;;;;;;9.00;5.43;;;19.30;97.90;;;;;;6192033;23;20024;-78
2021/07/25 05:57:03;;;;;;;9.23;5.32;;;19.50;97.60;;;;;;6217669;23;20252;-78
2021/07/25 05:59:28;;;;;;;8.45;5.32;;;19.60;97.50;;;;;;6216683;23;20611;-78
2021/07/25 06:01:54;;;;;;;8.15;5.38;;;19.70;97.70;;;;;;6217939;23;20000;-78
2021/07/25 06:04:20;;;;;;;10.02;5.10;;;19.90;97.10;;;;;;6218338;23;20326;-78
2021/07/25 06:06:45;;;;;;;9.02;4.78;;;20.10;97.20;;;;;;6217645;23;20366;-77
2021/07/25 06:09:11;;;;;;;9.73;5.25;;;20.20;96.50;;;;;;6218428;23;20091;-79
2021/07/25 06:11:38;;;;;;;7.57;4.97;;;20.40;95.80;;;;;;6191781;23;20012;-78
2021/07/25 06:14:04;;;;;;;12.15;5.18;;;20.60;95.60;;;;;;6217777;23;20014;-77
2021/07/25 06:16:32;;;;;;;8.98;4.35;;;20.60;95.30;;;;;;6216004;23;20009;-77
2021/07/25 06:18:58;;;;;;;9.30;4.43;;;21.00;96.00;;;;;;6191338;23;20011;-79
2021/07/25 06:21:26;;;;;;;8.52;4.63;;;21.50;93.90;;;;;;6217062;23;20005;-78
2021/07/25 06:23:53;;;;;;;7.85;4.82;;;21.80;93.70;;;;;;6216552;23;20396;-78
2021/07/25 06:26:19;;;;;;;7.47;4.80;;;22.10;93.10;;;;;;6217903;23;19997;-78
2021/07/25 06:28:49;;;;;;;8.15;4.80;;;22.10;92.50;;;;;;6217429;23;20008;-76
2021/07/25 06:31:18;;;;;;;9.25;4.95;;;21.50;91.50;;;;;;6216623;23;20270;-78
2021/07/25 06:33:45;;;;;;;10.07;5.05;;;21.30;92.60;;;;;;6217418;23;20023;-77
2021/07/25 06:36:12;;;;;;;7.93;4.88;;;21.50;90.70;;;;;;6216616;23;20321;-78
2021/07/25 06:38:39;;;;;;;9.82;4.82;;;21.60;90.20;;;;;;6217701;23;19997;-78
2021/07/25 06:41:06;;;;;;;8.93;4.90;;;21.60;91.40;;;;;;6190263;23;20001;-78
2021/07/25 06:43:34;;;;;;;8.55;4.90;;;21.60;93.30;;;;;;6190925;23;20005;-78
2021/07/25 06:46:00;;;;;;;9.57;5.10;;;21.30;92.70;;;;;;6215494;23;20092;-77
2021/07/25 06:48:33;;;;;;;13.43;5.30;;;21.30;93.30;;;;;;6217583;23;20032;-77
2021/07/25 06:51:01;;;;;;;8.48;4.72;;;21.50;93.30;;;;;;6190898;23;20020;-79
2021/07/25 06:53:29;;;;;;;9.57;4.82;;;21.80;91.80;;;;;;6191426;23;20406;-78
2021/07/25 06:55:56;;;;;;;8.82;5.28;;;21.80;91.80;;;;;;6217231;23;20010;-78
2021/07/25 06:58:22;;;;;;;10.40;5.30;;;21.70;92.60;;;;;;6217621;23;20000;-78
2021/07/25 07:00:48;;;;;;;9.55;4.88;;;21.70;91.70;;;;;;6214555;23;20127;-78
2021/07/25 07:03:18;;;;;;;8.77;5.13;;;21.50;91.90;;;;;;6217103;23;20012;-78
2021/07/25 07:05:44;;;;;;;11.98;5.50;;;21.30;92.30;;;;;;6216912;23;20005;-78
2021/07/25 07:08:09;;;;;;;9.50;5.20;;;21.20;92.20;;;;;;6217549;23;20243;-78
2021/07/25 07:10:40;;;;;;;10.80;4.88;;;21.20;91.50;;;;;;6217241;23;20008;-78
2021/07/25 07:13:09;;;;;;;6.93;4.55;;;21.20;91.40;;;;;;6190767;23;20009;-77
2021/07/25 07:15:40;;;;;;;9.15;5.13;;;21.30;92.00;;;;;;6215568;23;20088;-78
2021/07/25 07:18:07;;;;;;;11.70;5.57;;;21.20;91.90;;;;;;6217230;23;20076;-78
2021/07/25 07:20:32;;;;;;;9.73;5.15;;;21.10;93.10;;;;;;6217117;23;19997;-78
2021/07/25 07:23:06;;;;;;;10.52;5.35;;;21.10;93.50;;;;;;6217020;23;20004;-78
2021/07/25 07:25:38;;;;;;;11.27;5.30;;;21.10;93.10;;;;;;6191067;23;20005;-79
2021/07/25 07:28:05;;;;;;;9.52;5.28;;;21.10;93.50;;;;;;6216689;23;20005;-77
2021/07/25 07:30:31;;;;;;;10.65;5.32;;;21.20;92.90;;;;;;6189698;23;20011;-77
2021/07/25 07:33:18;;;;;;;9.43;4.55;;;21.20;92.50;;;;;;6216799;23;20005;-78
2021/07/25 07:35:44;;;;;;;8.77;4.57;;;21.30;92.50;;;;;;6190223;23;20055;-78
2021/07/25 07:38:11;;;;;;;9.00;5.00;;;21.50;91.40;;;;;;6217412;23;20088;-78
2021/07/25 07:40:38;;;;;;;8.45;5.25;;;21.70;90.70;;;;;;6191278;23;20096;-79
2021/07/25 07:43:05;;;;;;;9.32;4.70;;;21.90;90.40;;;;;;6216124;23;20020;-78
2021/07/25 07:45:31;;;;;;;11.73;4.57;;;22.40;90.00;;;;;;6215484;23;20368;-78
2021/07/25 07:47:57;;;;;;;6.95;4.20;;;23.10;87.90;;;;;;6189355;23;20023;-78
2021/07/25 07:50:22;;;;;;;6.88;4.22;;;24.30;86.30;;;;;;6216904;23;20004;-78
2021/07/25 07:52:49;;;;;;;8.13;4.30;;;25.30;82.50;;;;;;6216471;23;20295;-78
2021/07/25 07:55:15;;;;;;;9.07;4.90;;;26.30;78.50;;;;;;6216838;23;20278;-78
2021/07/25 07:57:42;;;;;;;10.05;4.63;;;25.90;78.30;;;;;;6216864;23;20000;-78
2021/07/25 08:00:08;;;;;;;7.78;4.18;;;25.50;79.00;;;;;;6215383;23;19997;-79
2021/07/25 08:02:35;;;;;;;9.48;4.88;;;25.60;79.30;;;;;;6217321;23;20048;-78
2021/07/25 08:05:02;;;;;;;9.00;4.97;;;24.90;82.00;;;;;;6217939;23;20009;-78
2021/07/25 08:07:28;;;;;;;7.63;4.85;;;24.10;82.80;;;;;;6217921;23;20420;-78
2021/07/25 08:09:53;;;;;;;9.77;5.03;;;23.60;84.20;;;;;;6190164;23;20012;-80
2021/07/25 08:12:20;;;;;;;11.85;5.40;;;23.50;84.90;;;;;;6218835;23;20004;-78
2021/07/25 08:14:45;;;;;;;9.45;4.75;;;23.30;84.90;;;;;;6217043;23;20000;-78
2021/07/25 08:17:11;;;;;;;8.32;5.13;;;23.10;85.60;;;;;;6219071;23;20063;-77
2021/07/25 08:19:37;;;;;;;12.93;5.75;;;22.90;87.20;;;;;;6218896;23;20005;-79
2021/07/25 08:22:04;;;;;;;10.02;6.00;;;22.60;86.10;;;;;;6218478;23;20355;-78
2021/07/25 08:24:30;;;;;;;9.82;5.63;;;22.40;89.60;;;;;;6218151;23;20134;-78
2021/07/25 08:26:56;;;;;;;13.43;5.80;;;22.10;91.90;;;;;;6217439;23;20032;-78
2021/07/25 08:29:22;;;;;;;11.48;7.28;;;21.90;92.90;;;;;;6210815;23;20027;-79
2021/07/25 08:31:47;;;;;;;9.93;6.10;;;21.90;93.40;;;;;;6186468;23;20362;-78
2021/07/25 08:34:13;;;;;;;12.98;6.60;;;22.30;92.60;;;;;;6212918;23;20011;-78
2021/07/25 08:36:39;;;;;;;11.18;6.45;;;22.90;92.10;;;;;;6212330;23;20429;-78
2021/07/25 08:39:05;;;;;;;10.75;6.25;;;23.40;90.60;;;;;;6212204;23;20076;-77
2021/07/25 08:41:58;;;;;;;10.88;6.35;;;23.20;90.80;;;;;;6212817;23;20001;-78
2021/07/25 08:44:45;;;;;;;10.97;5.50;;;23.30;89.40;;;;;;6209959;23;20054;-78
2021/07/25 08:47:16;;;;;;;9.68;5.10;;;23.00;88.80;;;;;;6211427;23;20087;-78
2021/07/25 08:50:07;;;;;;;13.63;5.97;;;22.90;89.10;;;;;;6211158;23;20004;-78
2021/07/25 08:52:36;;;;;;;10.15;6.20;;;22.80;89.80;;;;;;6212700;23;20404;-78
2021/07/25 08:55:09;;;;;;;11.02;6.50;;;22.50;92.60;;;;;;6212182;23;20039;-79
2021/07/25 08:57:38;;;;;;;10.25;6.65;;;22.40;92.70;;;;;;6214399;23;20001;-78
2021/07/25 09:00:07;;;;;;;10.25;6.15;;;22.60;92.60;;;;;;6209029;23;20026;-77
2021/07/25 09:02:34;;;;;;;9.32;6.00;;;22.60;92.20;;;;;;6185833;23;20122;-77
2021/07/25 09:05:00;;;;;;;9.50;5.93;;;22.30;91.50;;;;;;6211392;23;20005;-78
2021/07/25 09:07:31;;;;;;;9.90;5.38;;;22.60;91.10;;;;;;6212908;23;20005;-77
2021/07/25 09:10:03;;;;;;;11.63;6.15;;;23.00;90.10;;;;;;6213305;23;20060;-77
2021/07/25 09:12:30;;;;;;;10.32;6.13;;;23.40;89.30;;;;;;6211937;23;20004;-78
2021/07/25 09:15:02;;;;;;;7.75;5.00;;;23.80;89.40;;;;;;6211526;23;20100;-77
2021/07/25 09:17:28;;;;;;;11.18;6.03;;;24.10;86.10;;;;;;6213999;23;20051;-77
2021/07/25 09:20:12;;;;;;;9.02;5.13;;;24.40;87.40;;;;;;6213611;23;20008;-78
2021/07/25 09:22:45;;;;;;;9.45;5.25;;;24.90;85.60;;;;;;6187408;23;20012;-77
2021/07/25 09:25:11;;;;;;;9.73;5.25;;;25.10;85.20;;;;;;6186707;23;20329;-78
2021/07/25 09:27:37;;;;;;;9.88;6.07;;;24.70;85.00;;;;;;6212021;23;20043;-78
2021/07/25 09:30:19;;;;;;;13.00;6.45;;;24.20;85.40;;;;;;6209279;23;20009;-79
2021/07/25 09:32:46;;;;;;;11.95;7.10;;;23.50;88.00;;;;;;6186141;23;20004;-76
2021/07/25 09:35:24;;;;;;;12.45;7.13;;;22.80;90.90;;;;;;6211173;23;20001;-76
2021/07/25 09:38:11;;;;;;;10.18;6.97;;;22.10;92.80;;;;;;6184028;23;20037;-77
2021/07/25 09:40:38;;;;;;;11.05;7.35;;;21.60;93.70;;;;;;6207309;23;20270;-78
2021/07/25 09:43:08;;;;;;;10.57;6.90;;;21.20;94.30;;;;;;6177089;23;20000;-77
2021/07/25 09:45:57;;;;;;;12.48;7.72;;;21.00;95.00;;;;;;6214269;23;20005;-76
2021/07/25 09:48:33;;;;;;;13.35;8.00;;;20.90;95.50;;;;;;6218607;23;20009;-76
2021/07/25 09:51:16;;;;;;;20.02;9.70;;;20.70;95.60;;;;;;6187022;23;20004;-76
2021/07/25 09:53:44;;;;;;;17.48;9.73;;;20.40;95.80;;;;;;6210843;23;20012;-76
2021/07/25 09:56:19;;;;;;;16.73;10.07;;;20.30;96.40;;;;;;6186554;23;20143;-76
2021/07/25 09:58:45;;;;;;;17.33;10.10;;;20.30;96.30;;;;;;6186817;23;20008;-76
2021/07/25 10:01:38;;;;;;;19.25;10.43;;;20.30;96.50;;;;;;6186877;23;20004;-77
2021/07/25 10:04:18;;;;;;;15.32;9.40;;;20.20;96.40;;;;;;6208968;23;20005;-77
2021/07/25 10:06:48;;;;;;;15.20;11.07;;;20.20;96.60;;;;;;6217293;23;20087;-76
2021/07/25 10:09:21;;;;;;;13.95;9.60;;;20.10;96.30;;;;;;6217679;23;20008;-76
2021/07/25 10:11:54;;;;;;;16.08;9.73;;;20.20;96.40;;;;;;6216765;23;20426;-77
2021/07/25 10:14:22;;;;;;;13.35;9.25;;;20.40;96.40;;;;;;6215653;23;20008;-77
2021/07/25 10:16:52;;;;;;;15.07;9.35;;;20.60;96.40;;;;;;6191017;23;20005;-77
2021/07/25 10:19:42;;;;;;;13.55;9.45;;;20.80;96.00;;;;;;6216817;23;20004;-76
2021/07/25 10:22:13;;;;;;;13.70;9.75;;;20.90;95.80;;;;;;6216397;23;20000;-77
2021/07/25 10:24:40;;;;;;;16.80;9.70;;;21.00;95.70;;;;;;6217664;23;20082;-76
2021/07/25 10:27:06;;;;;;;17.25;9.25;;;20.90;95.80;;;;;;6217032;23;20004;-76
2021/07/25 10:29:33;;;;;;;12.70;9.48;;;20.80;95.90;;;;;;6216706;23;20265;-75
2021/07/25 10:32:00;;;;;;;15.13;9.10;;;20.70;96.10;;;;;;6217589;23;20012;-77
2021/07/25 10:34:30;;;;;;;15.65;9.18;;;20.50;95.80;;;;;;6217500;23;19997;-76
2021/07/25 10:36:55;;;;;;;14.90;9.23;;;20.40;96.00;;;;;;6216451;23;20001;-78
2021/07/25 10:39:24;;;;;;;16.35;11.05;;;20.30;96.50;;;;;;6216663;23;20025;-77
2021/07/25 10:41:52;;;;;;;14.82;10.05;;;20.20;96.60;;;;;;6216003;23;20084;-77
2021/07/25 10:44:19;;;;;;;14.18;10.32;;;20.10;96.70;;;;;;6215755;23;20012;-77
2021/07/25 10:46:44;;;;;;;15.20;10.40;;;20.00;96.90;;;;;;6215988;23;20008;-77
2021/07/25 10:49:14;;;;;;;14.25;10.27;;;19.90;97.00;;;;;;6216499;23;20087;-77
2021/07/25 10:52:00;;;;;;;18.25;10.55;;;19.90;97.30;;;;;;6216621;23;20035;-77
2021/07/25 10:54:30;;;;;;;21.88;10.10;;;19.80;97.40;;;;;;6216333;23;20039;-77
2021/07/25 10:57:02;;;;;;;17.83;10.35;;;19.80;97.50;;;;;;6217044;23;20115;-77
2021/07/25 10:59:55;;;;;;;14.50;10.18;;;19.90;97.50;;;;;;6215471;23;20309;-76
2021/07/25 11:02:24;;;;;;;17.80;9.50;;;20.10;97.10;;;;;;6216988;23;20321;-76
2021/07/25 11:04:56;;;;;;;14.95;9.40;;;20.20;96.90;;;;;;6190406;23;20009;-76
2021/07/25 11:07:24;;;;;;;14.57;10.25;;;20.30;96.50;;;;;;6216639;23;20024;-76
2021/07/25 11:10:05;;;;;;;16.50;9.90;;;20.30;96.40;;;;;;6216392;23;20076;-76
2021/07/25 11:12:51;;;;;;;17.27;10.18;;;20.30;96.70;;;;;;6217383;23;20004;-76
2021/07/25 11:15:32;;;;;;;16.98;9.50;;;20.30;96.40;;;;;;6215503;23;20009;-76
2021/07/25 11:17:59;;;;;;;13.77;9.02;;;20.20;96.60;;;;;;6216169;23;20000;-76
2021/07/25 11:20:34;;;;;;;14.93;9.77;;;20.20;96.60;;;;;;6217004;23;19997;-76
2021/07/25 11:23:00;;;;;;;13.50;9.50;;;20.10;96.80;;;;;;6190409;23;20028;-75
2021/07/25 11:25:28;;;;;;;18.77;9.95;;;19.90;96.90;;;;;;6216699;23;20000;-75
2021/07/25 11:27:54;;;;;;;13.98;9.40;;;19.90;97.10;;;;;;6190870;23;20012;-76
2021/07/25 11:30:53;;;;;;;16.75;9.65;;;19.70;97.30;;;;;;6215458;23;20069;-75
2021/07/25 11:33:40;;;;;;;12.00;8.95;;;19.80;97.20;;;;;;6183480;23;20404;-75
2021/07/25 11:36:11;;;;;;;14.20;9.90;;;19.70;97.10;;;;;;6216620;23;20000;-76
2021/07/25 11:38:39;;;;;;;14.98;10.27;;;19.70;97.10;;;;;;6218737;23;20005;-76
2021/07/25 11:41:06;;;;;;;14.02;9.75;;;19.60;97.20;;;;;;6218629;23;19997;-76
2021/07/25 11:43:52;;;;;;;13.57;9.57;;;19.40;97.50;;;;;;6218984;23;20007;-75
2021/07/25 11:46:29;;;;;;;17.05;10.70;;;19.40;97.60;;;;;;6217815;23;20424;-77
2021/07/25 11:49:04;;;;;;;18.45;10.80;;;19.40;97.50;;;;;;6219072;23;20004;-77
2021/07/25 11:51:32;;;;;;;17.48;12.00;;;19.20;97.70;;;;;;6218242;23;20004;-77
2021/07/25 11:53:58;;;;;;;18.42;11.40;;;19.00;97.80;;;;;;6217612;23;20028;-77
2021/07/25 11:56:24;;;;;;;20.52;12.10;;;19.00;97.80;;;;;;6218983;23;20001;-77
2021/07/25 11:59:09;;;;;;;17.73;11.23;;;19.10;97.90;;;;;;6219293;23;20004;-78
2021/07/25 12:01:37;;;;;;;17.40;9.95;;;19.10;97.80;;;;;;6217365;23;20008;-78
2021/07/25 12:04:24;;;;;;;15.07;9.25;;;19.10;97.90;;;;;;6218531;23;20134;-78
2021/07/25 12:06:58;;;;;;;17.80;11.20;;;19.00;97.90;;;;;;6192092;23;20000;-78
2021/07/25 12:09:24;;;;;;;18.33;10.75;;;19.20;97.70;;;;;;6192688;23;20807;-78
2021/07/25 12:12:19;;;;;;;17.88;11.10;;;19.20;97.50;;;;;;6218340;23;20035;-79
2021/07/25 12:14:48;;;;;;;14.98;10.55;;;19.20;97.60;;;;;;6191091;23;20038;-80
2021/07/25 12:17:53;;;;;;;20.85;12.93;;;19.10;97.30;;;;;;6219282;23;20007;-81
2021/07/25 12:20:20;;;;;;;16.60;11.02;;;19.10;97.30;;;;;;6192472;23;20032;-81
2021/07/25 12:22:54;;;;;;;15.60;10.52;;;19.10;97.00;;;;;;6191737;23;20005;-81
2021/07/25 12:25:20;;;;;;;14.20;8.93;;;19.20;97.00;;;;;;6219537;23;20009;-80
2021/07/25 12:27:46;;;;;;;14.60;9.45;;;19.30;98.00;;;;;;6218578;23;20008;-80
2021/07/25 12:30:14;;;;;;;11.07;7.03;;;19.30;97.70;;;;;;6216466;23;20009;-80
2021/07/25 12:32:40;;;;;;;10.55;6.88;;;19.40;98.00;;;;;;6190767;23;20008;-80
2021/07/25 12:35:09;;;;;;;10.55;6.43;;;19.50;97.90;;;;;;6217791;23;20680;-80
2021/07/25 12:37:44;;;;;;;9.65;6.35;;;19.70;97.20;;;;;;6217687;23;20054;-80
2021/07/25 12:40:28;;;;;;;9.63;5.70;;;20.00;97.30;;;;;;6192140;23;20005;-80
2021/07/25 12:42:57;;;;;;;7.95;5.20;;;20.30;97.60;;;;;;6192029;23;20043;-79
2021/07/25 12:45:33;;;;;;;8.93;4.95;;;20.50;96.70;;;;;;6191077;23;20011;-80
2021/07/25 12:48:25;;;;;;;8.60;5.07;;;20.40;95.40;;;;;;6191443;23;20016;-80